sensor_id;sensor_type;location;lat;lon;timestamp;P1;durP1;ratioP1;P2;durP2;ratioP2
55346;SDS011;41218;55.700;38.270;2023-11-19T00:03:02;4.68;;;1.63;;
55346;SDS011;41218;55.700;38.270;2023-11-19T00:08:03;4.60;;;2.72;;
55346;SDS011;41218;55.700;38.270;2023-11-19T00:13:06;2.50;;;1.38;;
55346;SDS011;41218;55.700;38.270;2023-11-19T00:18:07;1.90;;;1.75;;
55346;SDS011;41218;55.700;38.270;2023-11-19T00:23:07;5.05;;;2.85;;
55346;SDS011;41218;55.700;38.270;2023-11-19T00:28:08;3.95;;;2.30;;
55346;SDS011;41218;55.700;38.270;2023-11-19T00:33:10;5.63;;;1.73;;
55346;SDS011;41218;55.700;38.270;2023-11-19T00:38:10;4.25;;;2.35;;
55346;SDS011;41218;55.700;38.270;2023-11-19T00:43:11;10.75;;;2.78;;
55346;SDS011;41218;55.700;38.270;2023-11-19T00:48:12;6.82;;;2.45;;
55346;SDS011;41218;55.700;38.270;2023-11-19T00:53:13;3.63;;;2.10;;
55346;SDS011;41218;55.700;38.270;2023-11-19T00:58:13;1.95;;;1.63;;
55346;SDS011;41218;55.700;38.270;2023-11-19T01:03:14;5.90;;;2.70;;
55346;SDS011;41218;55.700;38.270;2023-11-19T01:08:15;3.28;;;2.47;;
55346;SDS011;41218;55.700;38.270;2023-11-19T01:13:16;4.47;;;2.45;;
55346;SDS011;41218;55.700;38.270;2023-11-19T01:18:16;3.38;;;2.00;;
55346;SDS011;41218;55.700;38.270;2023-11-19T01:23:17;5.65;;;2.42;;
55346;SDS011;41218;55.700;38.270;2023-11-19T01:28:17;3.20;;;1.17;;
55346;SDS011;41218;55.700;38.270;2023-11-19T01:33:19;3.30;;;2.13;;
55346;SDS011;41218;55.700;38.270;2023-11-19T01:38:19;4.80;;;1.98;;
55346;SDS011;41218;55.700;38.270;2023-11-19T01:48:35;4.13;;;1.90;;
55346;SDS011;41218;55.700;38.270;2023-11-19T01:53:41;2.67;;;1.85;;
55346;SDS011;41218;55.700;38.270;2023-11-19T01:58:42;1.50;;;1.40;;
55346;SDS011;41218;55.700;38.270;2023-11-19T02:03:46;5.22;;;2.90;;
55346;SDS011;41218;55.700;38.270;2023-11-19T02:08:47;1.70;;;1.48;;
55346;SDS011;41218;55.700;38.270;2023-11-19T02:13:47;3.47;;;1.95;;
55346;SDS011;41218;55.700;38.270;2023-11-19T02:18:48;3.20;;;2.10;;
55346;SDS011;41218;55.700;38.270;2023-11-19T02:23:48;4.40;;;2.55;;
55346;SDS011;41218;55.700;38.270;2023-11-19T02:28:49;8.13;;;3.53;;
55346;SDS011;41218;55.700;38.270;2023-11-19T02:33:50;8.15;;;2.65;;
55346;SDS011;41218;55.700;38.270;2023-11-19T02:38:51;2.70;;;2.47;;
55346;SDS011;41218;55.700;38.270;2023-11-19T02:43:52;1.73;;;1.50;;
55346;SDS011;41218;55.700;38.270;2023-11-19T02:48:53;3.03;;;1.92;;
55346;SDS011;41218;55.700;38.270;2023-11-19T02:53:54;4.80;;;1.63;;
55346;SDS011;41218;55.700;38.270;2023-11-19T02:58:54;6.97;;;1.73;;
55346;SDS011;41218;55.700;38.270;2023-11-19T03:03:56;4.93;;;2.30;;
55346;SDS011;41218;55.700;38.270;2023-11-19T03:08:58;3.17;;;2.45;;
55346;SDS011;41218;55.700;38.270;2023-11-19T03:13:58;4.22;;;2.45;;
55346;SDS011;41218;55.700;38.270;2023-11-19T03:18:59;3.60;;;2.58;;
55346;SDS011;41218;55.700;38.270;2023-11-19T03:24:00;3.65;;;1.23;;
55346;SDS011;41218;55.700;38.270;2023-11-19T03:29:01;4.65;;;1.85;;
55346;SDS011;41218;55.700;38.270;2023-11-19T03:34:01;3.53;;;2.10;;
55346;SDS011;41218;55.700;38.270;2023-11-19T03:39:03;4.35;;;2.53;;
55346;SDS011;41218;55.700;38.270;2023-11-19T03:44:03;3.10;;;1.70;;
55346;SDS011;41218;55.700;38.270;2023-11-19T03:49:04;2.10;;;1.90;;
55346;SDS011;41218;55.700;38.270;2023-11-19T03:54:07;6.40;;;1.75;;
55346;SDS011;41218;55.700;38.270;2023-11-19T03:59:07;2.08;;;1.55;;
55346;SDS011;41218;55.700;38.270;2023-11-19T04:04:09;1.90;;;1.52;;
55346;SDS011;41218;55.700;38.270;2023-11-19T04:09:10;7.10;;;2.47;;
55346;SDS011;41218;55.700;38.270;2023-11-19T04:14:11;0.98;;;0.60;;
55346;SDS011;41218;55.700;38.270;2023-11-19T04:19:13;4.00;;;2.45;;
55346;SDS011;41218;55.700;38.270;2023-11-19T04:24:13;1.83;;;1.52;;
55346;SDS011;41218;55.700;38.270;2023-11-19T04:29:15;3.97;;;2.35;;
55346;SDS011;41218;55.700;38.270;2023-11-19T04:34:19;4.68;;;1.70;;
55346;SDS011;41218;55.700;38.270;2023-11-19T04:39:20;2.00;;;1.20;;
55346;SDS011;41218;55.700;38.270;2023-11-19T04:44:21;3.22;;;2.38;;
55346;SDS011;41218;55.700;38.270;2023-11-19T04:49:22;4.47;;;2.63;;
55346;SDS011;41218;55.700;38.270;2023-11-19T04:54:22;2.72;;;1.48;;
55346;SDS011;41218;55.700;38.270;2023-11-19T04:59:24;1.00;;;0.98;;
55346;SDS011;41218;55.700;38.270;2023-11-19T05:04:25;4.15;;;1.15;;
55346;SDS011;41218;55.700;38.270;2023-11-19T05:09:26;5.90;;;1.27;;
55346;SDS011;41218;55.700;38.270;2023-11-19T05:14:27;1.60;;;1.27;;
55346;SDS011;41218;55.700;38.270;2023-11-19T05:19:28;2.95;;;1.38;;
55346;SDS011;41218;55.700;38.270;2023-11-19T05:24:28;0.90;;;0.85;;
55346;SDS011;41218;55.700;38.270;2023-11-19T05:29:29;1.13;;;1.00;;
55346;SDS011;41218;55.700;38.270;2023-11-19T05:34:30;1.95;;;1.10;;
55346;SDS011;41218;55.700;38.270;2023-11-19T05:39:30;1.10;;;0.85;;
55346;SDS011;41218;55.700;38.270;2023-11-19T05:44:31;6.20;;;1.10;;
55346;SDS011;41218;55.700;38.270;2023-11-19T05:49:31;1.23;;;0.57;;
55346;SDS011;41218;55.700;38.270;2023-11-19T05:54:33;1.80;;;1.05;;
55346;SDS011;41218;55.700;38.270;2023-11-19T05:59:37;2.50;;;1.85;;
55346;SDS011;41218;55.700;38.270;2023-11-19T06:04:38;3.55;;;1.60;;
55346;SDS011;41218;55.700;38.270;2023-11-19T06:09:38;5.68;;;1.42;;
55346;SDS011;41218;55.700;38.270;2023-11-19T06:14:40;8.80;;;2.30;;
55346;SDS011;41218;55.700;38.270;2023-11-19T06:19:41;2.20;;;1.35;;
55346;SDS011;41218;55.700;38.270;2023-11-19T06:24:41;8.02;;;3.50;;
55346;SDS011;41218;55.700;38.270;2023-11-19T06:29:42;4.00;;;2.55;;
55346;SDS011;41218;55.700;38.270;2023-11-19T06:34:43;6.47;;;2.47;;
55346;SDS011;41218;55.700;38.270;2023-11-19T06:39:43;4.55;;;2.38;;
55346;SDS011;41218;55.700;38.270;2023-11-19T06:44:44;9.32;;;4.20;;
55346;SDS011;41218;55.700;38.270;2023-11-19T06:49:45;3.35;;;2.08;;
55346;SDS011;41218;55.700;38.270;2023-11-19T06:54:46;12.73;;;4.65;;
55346;SDS011;41218;55.700;38.270;2023-11-19T06:59:47;6.38;;;3.33;;
55346;SDS011;41218;55.700;38.270;2023-11-19T07:04:48;5.45;;;2.53;;
55346;SDS011;41218;55.700;38.270;2023-11-19T07:09:48;5.95;;;2.30;;
55346;SDS011;41218;55.700;38.270;2023-11-19T07:14:50;2.10;;;1.40;;
55346;SDS011;41218;55.700;38.270;2023-11-19T07:24:51;6.87;;;2.40;;
55346;SDS011;41218;55.700;38.270;2023-11-19T07:29:53;4.55;;;2.88;;
55346;SDS011;41218;55.700;38.270;2023-11-19T07:39:54;5.03;;;2.10;;
55346;SDS011;41218;55.700;38.270;2023-11-19T07:54:57;5.88;;;2.22;;
55346;SDS011;41218;55.700;38.270;2023-11-19T08:04:58;1.30;;;1.20;;
55346;SDS011;41218;55.700;38.270;2023-11-19T08:09:59;10.90;;;4.72;;
55346;SDS011;41218;55.700;38.270;2023-11-19T08:15:00;14.77;;;4.57;;
55346;SDS011;41218;55.700;38.270;2023-11-19T08:25:01;5.67;;;2.93;;
55346;SDS011;41218;55.700;38.270;2023-11-19T08:35:02;10.03;;;4.17;;
55346;SDS011;41218;55.700;38.270;2023-11-19T08:40:05;14.45;;;5.38;;
55346;SDS011;41218;55.700;38.270;2023-11-19T08:45:08;13.25;;;5.07;;
55346;SDS011;41218;55.700;38.270;2023-11-19T08:50:10;12.68;;;4.60;;
55346;SDS011;41218;55.700;38.270;2023-11-19T08:55:11;13.90;;;5.57;;
55346;SDS011;41218;55.700;38.270;2023-11-19T09:00:13;16.63;;;6.63;;
55346;SDS011;41218;55.700;38.270;2023-11-19T09:05:14;10.48;;;4.50;;
55346;SDS011;41218;55.700;38.270;2023-11-19T09:10:15;18.83;;;8.27;;
55346;SDS011;41218;55.700;38.270;2023-11-19T09:15:16;13.52;;;6.25;;
55346;SDS011;41218;55.700;38.270;2023-11-19T09:20:16;13.45;;;6.00;;
55346;SDS011;41218;55.700;38.270;2023-11-19T09:25:17;21.33;;;7.55;;
55346;SDS011;41218;55.700;38.270;2023-11-19T09:30:18;16.35;;;7.10;;
55346;SDS011;41218;55.700;38.270;2023-11-19T09:35:18;11.68;;;5.78;;
55346;SDS011;41218;55.700;38.270;2023-11-19T09:40:19;12.27;;;4.80;;
55346;SDS011;41218;55.700;38.270;2023-11-19T09:45:21;10.60;;;5.10;;
55346;SDS011;41218;55.700;38.270;2023-11-19T09:50:25;14.13;;;6.18;;
55346;SDS011;41218;55.700;38.270;2023-11-19T09:55:26;8.02;;;3.45;;
55346;SDS011;41218;55.700;38.270;2023-11-19T10:00:26;13.65;;;5.32;;
55346;SDS011;41218;55.700;38.270;2023-11-19T10:05:27;13.57;;;4.97;;
55346;SDS011;41218;55.700;38.270;2023-11-19T10:10:28;16.55;;;6.57;;
55346;SDS011;41218;55.700;38.270;2023-11-19T10:15:28;9.90;;;5.32;;
55346;SDS011;41218;55.700;38.270;2023-11-19T10:20:36;14.00;;;5.88;;
55346;SDS011;41218;55.700;38.270;2023-11-19T10:30:38;12.80;;;5.83;;
55346;SDS011;41218;55.700;38.270;2023-11-19T10:35:57;14.35;;;5.13;;
55346;SDS011;41218;55.700;38.270;2023-11-19T10:40:58;11.90;;;4.90;;
55346;SDS011;41218;55.700;38.270;2023-11-19T10:46:09;6.18;;;3.03;;
55346;SDS011;41218;55.700;38.270;2023-11-19T10:51:12;16.80;;;6.40;;
55346;SDS011;41218;55.700;38.270;2023-11-19T10:56:21;16.08;;;6.85;;
55346;SDS011;41218;55.700;38.270;2023-11-19T11:01:26;13.80;;;6.38;;
55346;SDS011;41218;55.700;38.270;2023-11-19T11:06:34;14.60;;;5.80;;
55346;SDS011;41218;55.700;38.270;2023-11-19T11:11:35;13.68;;;5.70;;
55346;SDS011;41218;55.700;38.270;2023-11-19T11:16:35;15.65;;;6.05;;
55346;SDS011;41218;55.700;38.270;2023-11-19T11:21:41;8.75;;;4.03;;
55346;SDS011;41218;55.700;38.270;2023-11-19T11:26:53;10.52;;;5.43;;
55346;SDS011;41218;55.700;38.270;2023-11-19T11:32:34;11.60;;;5.25;;
55346;SDS011;41218;55.700;38.270;2023-11-19T11:37:46;12.45;;;5.05;;
55346;SDS011;41218;55.700;38.270;2023-11-19T11:42:49;11.55;;;4.97;;
55346;SDS011;41218;55.700;38.270;2023-11-19T11:57:58;12.43;;;6.30;;
55346;SDS011;41218;55.700;38.270;2023-11-19T12:02:59;11.52;;;5.47;;
55346;SDS011;41218;55.700;38.270;2023-11-19T12:08:01;13.75;;;6.10;;
55346;SDS011;41218;55.700;38.270;2023-11-19T12:13:05;11.88;;;5.18;;
55346;SDS011;41218;55.700;38.270;2023-11-19T12:18:09;11.13;;;5.30;;
55346;SDS011;41218;55.700;38.270;2023-11-19T12:23:10;10.48;;;5.45;;
55346;SDS011;41218;55.700;38.270;2023-11-19T12:33:17;13.55;;;4.70;;
55346;SDS011;41218;55.700;38.270;2023-11-19T12:38:18;11.35;;;5.28;;
55346;SDS011;41218;55.700;38.270;2023-11-19T12:43:22;16.88;;;5.25;;
55346;SDS011;41218;55.700;38.270;2023-11-19T12:48:23;11.27;;;5.65;;
55346;SDS011;41218;55.700;38.270;2023-11-19T12:53:24;11.75;;;5.10;;
55346;SDS011;41218;55.700;38.270;2023-11-19T12:58:33;8.00;;;3.58;;
55346;SDS011;41218;55.700;38.270;2023-11-19T13:03:36;10.02;;;4.68;;
55346;SDS011;41218;55.700;38.270;2023-11-19T13:08:39;12.27;;;5.32;;
55346;SDS011;41218;55.700;38.270;2023-11-19T13:13:54;8.30;;;4.10;;
55346;SDS011;41218;55.700;38.270;2023-11-19T13:18:55;13.45;;;5.07;;
55346;SDS011;41218;55.700;38.270;2023-11-19T13:23:57;10.23;;;4.32;;
55346;SDS011;41218;55.700;38.270;2023-11-19T13:28:58;10.20;;;4.75;;
55346;SDS011;41218;55.700;38.270;2023-11-19T13:33:59;10.10;;;5.13;;
55346;SDS011;41218;55.700;38.270;2023-11-19T13:38:59;14.57;;;6.00;;
55346;SDS011;41218;55.700;38.270;2023-11-19T13:44:01;12.55;;;5.35;;
55346;SDS011;41218;55.700;38.270;2023-11-19T13:49:01;10.07;;;4.75;;
55346;SDS011;41218;55.700;38.270;2023-11-19T13:54:03;13.68;;;5.97;;
55346;SDS011;41218;55.700;38.270;2023-11-19T13:59:04;14.80;;;5.35;;
55346;SDS011;41218;55.700;38.270;2023-11-19T14:04:04;11.63;;;5.13;;
55346;SDS011;41218;55.700;38.270;2023-11-19T14:09:09;14.70;;;5.43;;
55346;SDS011;41218;55.700;38.270;2023-11-19T14:14:09;11.13;;;5.20;;
55346;SDS011;41218;55.700;38.270;2023-11-19T14:19:10;16.75;;;5.25;;
55346;SDS011;41218;55.700;38.270;2023-11-19T14:24:11;9.85;;;4.88;;
55346;SDS011;41218;55.700;38.270;2023-11-19T14:29:11;12.95;;;5.50;;
55346;SDS011;41218;55.700;38.270;2023-11-19T14:34:12;18.15;;;5.47;;
55346;SDS011;41218;55.700;38.270;2023-11-19T14:39:12;24.33;;;11.60;;
55346;SDS011;41218;55.700;38.270;2023-11-19T14:49:14;11.23;;;5.60;;
55346;SDS011;41218;55.700;38.270;2023-11-19T14:54:14;15.15;;;5.82;;
55346;SDS011;41218;55.700;38.270;2023-11-19T15:04:16;11.27;;;5.23;;
55346;SDS011;41218;55.700;38.270;2023-11-19T15:09:17;10.43;;;5.35;;
55346;SDS011;41218;55.700;38.270;2023-11-19T15:14:18;20.83;;;8.30;;
55346;SDS011;41218;55.700;38.270;2023-11-19T15:19:19;15.88;;;5.88;;
55346;SDS011;41218;55.700;38.270;2023-11-19T15:24:20;14.40;;;7.28;;
55346;SDS011;41218;55.700;38.270;2023-11-19T15:29:21;13.40;;;6.20;;
55346;SDS011;41218;55.700;38.270;2023-11-19T15:34:21;42.78;;;17.95;;
55346;SDS011;41218;55.700;38.270;2023-11-19T15:39:22;13.73;;;5.68;;
55346;SDS011;41218;55.700;38.270;2023-11-19T15:44:22;12.85;;;5.90;;
55346;SDS011;41218;55.700;38.270;2023-11-19T15:49:24;13.15;;;5.20;;
55346;SDS011;41218;55.700;38.270;2023-11-19T15:54:25;18.83;;;7.00;;
55346;SDS011;41218;55.700;38.270;2023-11-19T15:59:25;13.93;;;6.20;;
55346;SDS011;41218;55.700;38.270;2023-11-19T16:04:26;14.52;;;6.38;;
55346;SDS011;41218;55.700;38.270;2023-11-19T16:09:26;14.13;;;6.65;;
55346;SDS011;41218;55.700;38.270;2023-11-19T16:14:29;15.27;;;5.97;;
55346;SDS011;41218;55.700;38.270;2023-11-19T16:19:29;14.80;;;5.70;;
55346;SDS011;41218;55.700;38.270;2023-11-19T16:24:30;12.63;;;5.85;;
55346;SDS011;41218;55.700;38.270;2023-11-19T16:29:31;12.98;;;6.28;;
55346;SDS011;41218;55.700;38.270;2023-11-19T16:34:32;14.18;;;6.25;;
55346;SDS011;41218;55.700;38.270;2023-11-19T16:39:42;9.80;;;5.40;;
55346;SDS011;41218;55.700;38.270;2023-11-19T16:49:43;7.37;;;4.23;;
55346;SDS011;41218;55.700;38.270;2023-11-19T16:54:44;12.90;;;5.50;;
55346;SDS011;41218;55.700;38.270;2023-11-19T16:59:45;9.48;;;5.45;;
55346;SDS011;41218;55.700;38.270;2023-11-19T17:04:46;11.32;;;5.43;;
55346;SDS011;41218;55.700;38.270;2023-11-19T17:09:47;15.25;;;6.18;;
55346;SDS011;41218;55.700;38.270;2023-11-19T17:14:47;12.77;;;6.15;;
55346;SDS011;41218;55.700;38.270;2023-11-19T17:19:48;13.93;;;5.93;;
55346;SDS011;41218;55.700;38.270;2023-11-19T17:24:49;10.27;;;4.68;;
55346;SDS011;41218;55.700;38.270;2023-11-19T17:29:50;10.93;;;5.03;;
55346;SDS011;41218;55.700;38.270;2023-11-19T17:34:50;7.85;;;4.70;;
55346;SDS011;41218;55.700;38.270;2023-11-19T17:39:51;10.23;;;5.07;;
55346;SDS011;41218;55.700;38.270;2023-11-19T17:44:52;9.95;;;4.45;;
55346;SDS011;41218;55.700;38.270;2023-11-19T17:49:53;11.48;;;4.22;;
55346;SDS011;41218;55.700;38.270;2023-11-19T17:54:54;10.73;;;4.38;;
55346;SDS011;41218;55.700;38.270;2023-11-19T17:59:54;12.90;;;5.18;;
55346;SDS011;41218;55.700;38.270;2023-11-19T18:04:55;14.63;;;4.55;;
55346;SDS011;41218;55.700;38.270;2023-11-19T18:09:57;10.60;;;5.07;;
55346;SDS011;41218;55.700;38.270;2023-11-19T18:15:00;10.80;;;4.75;;
55346;SDS011;41218;55.700;38.270;2023-11-19T18:20:00;10.27;;;4.35;;
55346;SDS011;41218;55.700;38.270;2023-11-19T18:25:01;10.48;;;5.25;;
55346;SDS011;41218;55.700;38.270;2023-11-19T18:30:02;10.75;;;4.30;;
55346;SDS011;41218;55.700;38.270;2023-11-19T18:35:03;12.50;;;4.43;;
55346;SDS011;41218;55.700;38.270;2023-11-19T18:40:05;9.40;;;4.35;;
55346;SDS011;41218;55.700;38.270;2023-11-19T18:45:08;15.95;;;5.18;;
55346;SDS011;41218;55.700;38.270;2023-11-19T18:55:11;16.13;;;4.28;;
55346;SDS011;41218;55.700;38.270;2023-11-19T19:00:12;12.95;;;5.35;;
55346;SDS011;41218;55.700;38.270;2023-11-19T19:05:14;9.35;;;5.03;;
55346;SDS011;41218;55.700;38.270;2023-11-19T19:10:16;11.43;;;5.15;;
55346;SDS011;41218;55.700;38.270;2023-11-19T19:15:16;11.75;;;4.97;;
55346;SDS011;41218;55.700;38.270;2023-11-19T19:20:18;15.10;;;6.07;;
55346;SDS011;41218;55.700;38.270;2023-11-19T19:25:18;13.57;;;5.88;;
55346;SDS011;41218;55.700;38.270;2023-11-19T19:30:19;13.55;;;6.88;;
55346;SDS011;41218;55.700;38.270;2023-11-19T19:35:20;17.60;;;6.82;;
55346;SDS011;41218;55.700;38.270;2023-11-19T19:40:24;18.90;;;6.75;;
55346;SDS011;41218;55.700;38.270;2023-11-19T19:45:25;15.88;;;7.47;;
55346;SDS011;41218;55.700;38.270;2023-11-19T19:50:26;19.52;;;9.30;;
55346;SDS011;41218;55.700;38.270;2023-11-19T19:55:26;24.70;;;9.30;;
55346;SDS011;41218;55.700;38.270;2023-11-19T20:00:27;18.50;;;8.25;;
55346;SDS011;41218;55.700;38.270;2023-11-19T20:05:28;21.83;;;8.10;;
55346;SDS011;41218;55.700;38.270;2023-11-19T20:10:29;10.88;;;5.00;;
55346;SDS011;41218;55.700;38.270;2023-11-19T20:15:30;14.13;;;6.32;;
55346;SDS011;41218;55.700;38.270;2023-11-19T20:20:31;15.57;;;5.60;;
55346;SDS011;41218;55.700;38.270;2023-11-19T20:25:33;9.55;;;4.68;;
55346;SDS011;41218;55.700;38.270;2023-11-19T20:30:33;13.85;;;6.40;;
55346;SDS011;41218;55.700;38.270;2023-11-19T20:35:34;13.25;;;6.22;;
55346;SDS011;41218;55.700;38.270;2023-11-19T20:40:37;9.88;;;5.50;;
55346;SDS011;41218;55.700;38.270;2023-11-19T20:45:38;8.23;;;4.32;;
55346;SDS011;41218;55.700;38.270;2023-11-19T20:50:39;13.38;;;5.68;;
55346;SDS011;41218;55.700;38.270;2023-11-19T20:55:41;11.45;;;4.20;;
55346;SDS011;41218;55.700;38.270;2023-11-19T21:00:44;8.00;;;3.97;;
55346;SDS011;41218;55.700;38.270;2023-11-19T21:05:46;10.85;;;3.92;;
55346;SDS011;41218;55.700;38.270;2023-11-19T21:10:54;8.02;;;4.90;;
55346;SDS011;41218;55.700;38.270;2023-11-19T21:15:54;9.50;;;4.18;;
55346;SDS011;41218;55.700;38.270;2023-11-19T21:20:55;8.55;;;4.05;;
55346;SDS011;41218;55.700;38.270;2023-11-19T21:25:59;11.75;;;5.10;;
55346;SDS011;41218;55.700;38.270;2023-11-19T21:31:00;6.43;;;3.63;;
55346;SDS011;41218;55.700;38.270;2023-11-19T21:36:00;8.80;;;5.38;;
55346;SDS011;41218;55.700;38.270;2023-11-19T21:41:01;8.73;;;4.57;;
55346;SDS011;41218;55.700;38.270;2023-11-19T21:46:02;9.95;;;4.28;;
55346;SDS011;41218;55.700;38.270;2023-11-19T21:51:03;9.10;;;4.40;;
55346;SDS011;41218;55.700;38.270;2023-11-19T22:01:05;10.77;;;4.53;;
55346;SDS011;41218;55.700;38.270;2023-11-19T22:06:07;6.65;;;4.35;;
55346;SDS011;41218;55.700;38.270;2023-11-19T22:11:07;11.77;;;4.25;;
55346;SDS011;41218;55.700;38.270;2023-11-19T22:16:08;15.05;;;5.90;;
55346;SDS011;41218;55.700;38.270;2023-11-19T22:21:08;10.40;;;5.28;;
55346;SDS011;41218;55.700;38.270;2023-11-19T22:26:09;8.27;;;3.95;;
55346;SDS011;41218;55.700;38.270;2023-11-19T22:31:10;10.40;;;3.88;;
55346;SDS011;41218;55.700;38.270;2023-11-19T22:36:11;12.60;;;4.70;;
55346;SDS011;41218;55.700;38.270;2023-11-19T22:41:11;17.65;;;7.78;;
55346;SDS011;41218;55.700;38.270;2023-11-19T22:46:12;19.80;;;7.90;;
55346;SDS011;41218;55.700;38.270;2023-11-19T22:51:13;23.60;;;9.20;;
55346;SDS011;41218;55.700;38.270;2023-11-19T22:56:14;26.33;;;8.70;;
55346;SDS011;41218;55.700;38.270;2023-11-19T23:01:19;14.48;;;6.22;;
55346;SDS011;41218;55.700;38.270;2023-11-19T23:06:20;17.23;;;6.82;;
55346;SDS011;41218;55.700;38.270;2023-11-19T23:11:20;17.33;;;6.80;;
55346;SDS011;41218;55.700;38.270;2023-11-19T23:16:21;11.63;;;5.70;;
55346;SDS011;41218;55.700;38.270;2023-11-19T23:21:23;15.68;;;6.85;;
55346;SDS011;41218;55.700;38.270;2023-11-19T23:26:23;14.73;;;5.72;;
55346;SDS011;41218;55.700;38.270;2023-11-19T23:31:24;15.38;;;6.00;;
55346;SDS011;41218;55.700;38.270;2023-11-19T23:36:25;9.27;;;3.22;;
55346;SDS011;41218;55.700;38.270;2023-11-19T23:41:25;11.70;;;5.75;;
55346;SDS011;41218;55.700;38.270;2023-11-19T23:46:26;14.23;;;5.47;;
55346;SDS011;41218;55.700;38.270;2023-11-19T23:51:26;14.27;;;5.43;;
55346;SDS011;41218;55.700;38.270;2023-11-19T23:56:27;9.30;;;4.53;;
